createdAt,value
2018-03-24T00:01:50.096Z,7.90
2018-03-24T00:04:18.337Z,7.90
2018-03-24T00:06:47.001Z,7.90
2018-03-24T00:09:15.237Z,7.90
2018-03-24T00:11:43.486Z,7.80
2018-03-24T00:14:11.749Z,7.80
2018-03-24T00:16:39.988Z,7.70
2018-03-24T00:19:08.241Z,7.70
2018-03-24T00:21:37.269Z,7.70
2018-03-24T00:24:05.512Z,7.70
2018-03-24T00:26:33.753Z,7.70
2018-03-24T00:29:02.110Z,7.80
2018-03-24T00:31:30.345Z,7.80
2018-03-24T00:33:58.784Z,7.80
2018-03-24T00:36:27.048Z,7.70
2018-03-24T00:38:55.292Z,7.70
2018-03-24T00:41:23.700Z,7.70
2018-03-24T00:43:51.967Z,7.70
2018-03-24T00:46:20.210Z,7.60
2018-03-24T00:48:48.455Z,7.60
2018-03-24T00:51:16.909Z,7.50
2018-03-24T00:53:45.153Z,7.50
2018-03-24T00:56:13.383Z,7.40
2018-03-24T00:58:41.669Z,7.40
2018-03-24T01:01:09.929Z,7.40
2018-03-24T01:03:38.167Z,7.40
2018-03-24T01:06:06.525Z,7.30
2018-03-24T01:08:35.536Z,7.30
2018-03-24T01:11:03.782Z,7.30
2018-03-24T01:13:32.106Z,7.30
2018-03-24T01:16:00.356Z,7.40
2018-03-24T01:18:29.366Z,7.30
2018-03-24T01:20:57.642Z,7.30
2018-03-24T01:23:25.927Z,7.30
2018-03-24T01:25:54.180Z,7.20
2018-03-24T01:28:23.216Z,7.10
2018-03-24T01:30:51.461Z,7.10
2018-03-24T01:33:19.782Z,7.10
2018-03-24T01:35:48.105Z,7.10
2018-03-24T01:38:16.362Z,7.10
2018-03-24T01:40:44.611Z,7.10
2018-03-24T01:43:13.470Z,7.10
2018-03-24T01:45:41.726Z,7.10
2018-03-24T01:48:09.974Z,7.10
2018-03-24T01:50:38.242Z,7.10
2018-03-24T01:53:06.622Z,7.10
2018-03-24T01:55:34.874Z,7.10
2018-03-24T01:58:03.291Z,7.10
2018-03-24T02:00:31.490Z,7.20
2018-03-24T02:03:00.506Z,7.20
2018-03-24T02:05:28.787Z,7.20
2018-03-24T02:07:57.046Z,7.20
2018-03-24T02:10:25.278Z,7.30
2018-03-24T02:12:53.549Z,7.30
2018-03-24T02:15:21.818Z,7.30
2018-03-24T02:17:50.071Z,7.30
2018-03-24T02:20:19.187Z,7.30
2018-03-24T02:22:47.424Z,7.30
2018-03-24T02:25:15.673Z,7.30
2018-03-24T02:27:43.950Z,7.30
2018-03-24T02:30:12.213Z,7.30
2018-03-24T02:32:40.461Z,7.40
2018-03-24T02:35:08.730Z,7.40
2018-03-24T02:37:36.974Z,7.30
2018-03-24T02:40:05.229Z,7.30
2018-03-24T02:42:33.979Z,7.30
2018-03-24T02:45:02.343Z,7.30
2018-03-24T02:47:30.594Z,7.30
2018-03-24T02:49:58.871Z,7.30
2018-03-24T02:52:27.111Z,7.20
2018-03-24T02:54:55.361Z,7.20
2018-03-24T02:57:23.634Z,7.20
2018-03-24T02:59:51.892Z,7.30
2018-03-24T03:02:20.150Z,7.30
2018-03-24T03:04:49.096Z,7.20
2018-03-24T03:07:17.344Z,7.20
2018-03-24T03:09:45.593Z,7.20
2018-03-24T03:12:13.866Z,7.20
2018-03-24T03:14:42.887Z,7.10
2018-03-24T03:17:11.130Z,7.10
2018-03-24T03:19:39.406Z,7.10
2018-03-24T03:22:07.647Z,7.10
2018-03-24T03:24:35.890Z,7.00
2018-03-24T03:27:04.267Z,7.00
2018-03-24T03:29:32.513Z,7.00
2018-03-24T03:32:02.342Z,6.90
2018-03-24T03:34:30.623Z,6.90
2018-03-24T03:36:58.863Z,6.80
2018-03-24T03:39:27.117Z,6.70
2018-03-24T03:41:55.378Z,6.70
2018-03-24T03:44:23.630Z,6.60
2018-03-24T03:46:52.227Z,6.60
2018-03-24T03:49:20.563Z,6.70
2018-03-24T03:51:48.811Z,6.60
2018-03-24T03:54:17.058Z,6.60
2018-03-24T03:56:45.329Z,6.50
2018-03-24T03:59:13.581Z,6.50
2018-03-24T04:01:41.818Z,6.40
2018-03-24T04:04:10.094Z,6.30
2018-03-24T04:06:38.339Z,6.20
2018-03-24T04:09:07.086Z,6.20
2018-03-24T04:11:35.750Z,6.10
2018-03-24T04:14:03.998Z,6.00
2018-03-24T04:16:32.246Z,6.00
2018-03-24T04:19:00.514Z,5.90
2018-03-24T04:21:28.767Z,5.90
2018-03-24T04:23:57.014Z,5.80
2018-03-24T04:26:25.283Z,5.80
2018-03-24T04:28:53.530Z,5.80
2018-03-24T04:31:21.997Z,5.70
2018-03-24T04:33:51.098Z,5.60
2018-03-24T04:36:19.342Z,5.60
2018-03-24T04:38:47.594Z,5.60
2018-03-24T04:41:15.875Z,5.50
2018-03-24T04:43:44.174Z,5.50
2018-03-24T04:46:12.418Z,5.40
2018-03-24T04:48:40.991Z,5.40
2018-03-24T04:51:09.234Z,5.30
2018-03-24T04:53:37.487Z,5.30
2018-03-24T04:56:06.141Z,5.30
2018-03-24T04:58:34.402Z,5.20
2018-03-24T05:01:02.649Z,5.20
2018-03-24T05:03:30.935Z,5.20
2018-03-24T05:05:59.955Z,5.10
2018-03-24T05:08:28.202Z,5.10
2018-03-24T05:10:56.473Z,5.10
2018-03-24T05:13:25.502Z,5.10
2018-03-24T05:15:53.747Z,5.00
2018-03-24T05:18:23.114Z,5.00
2018-03-24T05:20:51.362Z,5.00
2018-03-24T05:23:19.611Z,5.00
2018-03-24T05:25:47.881Z,5.00
2018-03-24T05:28:16.899Z,5.00
2018-03-24T05:30:45.146Z,5.00
2018-03-24T05:33:13.422Z,5.00
2018-03-24T05:35:42.442Z,5.00
2018-03-24T05:38:10.704Z,5.00
2018-03-24T05:40:40.042Z,5.10
2018-03-24T05:43:08.293Z,5.10
2018-03-24T05:45:36.551Z,5.10
2018-03-24T05:48:04.829Z,5.10
2018-03-24T05:50:34.447Z,5.10
2018-03-24T05:53:03.453Z,5.00
2018-03-24T05:55:31.731Z,5.00
2018-03-24T05:57:59.986Z,5.00
2018-03-24T06:00:28.234Z,5.00
2018-03-24T06:02:57.111Z,5.00
2018-03-24T06:05:25.361Z,5.00
2018-03-24T06:07:53.610Z,5.00
2018-03-24T06:10:21.885Z,5.00
2018-03-24T06:12:50.130Z,5.10
2018-03-24T06:15:18.377Z,5.20
2018-03-24T06:17:46.654Z,5.30
2018-03-24T06:20:14.901Z,5.30
2018-03-24T06:22:43.162Z,5.40
2018-03-24T06:25:12.152Z,5.50
2018-03-24T06:27:41.165Z,5.40
2018-03-24T06:30:22.150Z,5.40
2018-03-24T06:32:50.401Z,5.40
2018-03-24T06:35:19.416Z,5.40
2018-03-24T06:37:47.683Z,5.40
2018-03-24T06:40:15.926Z,5.40
2018-03-24T06:42:44.170Z,5.40
2018-03-24T06:45:12.494Z,5.50
2018-03-24T06:47:40.745Z,5.50
2018-03-24T06:50:08.998Z,5.60
2018-03-24T06:52:37.457Z,5.60
2018-03-24T06:55:05.706Z,5.70
2018-03-24T06:57:33.958Z,5.70
2018-03-24T07:00:02.234Z,5.70
2018-03-24T07:02:30.486Z,5.70
2018-03-24T07:04:58.739Z,5.70
2018-03-24T07:07:27.314Z,5.80
2018-03-24T07:09:55.553Z,5.80
2018-03-24T07:12:23.803Z,5.80
2018-03-24T07:14:52.074Z,5.90
2018-03-24T07:17:20.326Z,5.90
2018-03-24T07:19:48.579Z,6.00
2018-03-24T07:22:17.422Z,6.10
2018-03-24T07:24:45.676Z,6.10
2018-03-24T07:27:13.924Z,6.20
2018-03-24T07:29:42.262Z,6.40
2018-03-24T07:32:10.512Z,6.40
2018-03-24T07:34:38.762Z,6.40
2018-03-24T07:37:07.026Z,6.50
2018-03-24T07:39:36.050Z,6.60
2018-03-24T07:42:04.299Z,6.60
2018-03-24T07:44:32.574Z,6.60
2018-03-24T07:47:00.826Z,6.60
2018-03-24T07:49:29.070Z,6.60
2018-03-24T07:51:57.642Z,6.70
2018-03-24T07:54:26.307Z,6.80
2018-03-24T07:56:55.318Z,6.90
2018-03-24T07:59:23.590Z,6.90
2018-03-24T08:01:51.850Z,7.00
2018-03-24T08:04:20.098Z,7.00
2018-03-24T08:06:48.369Z,7.10
2018-03-24T08:09:16.626Z,7.20
2018-03-24T08:11:44.876Z,7.30
2018-03-24T08:14:13.310Z,7.30
2018-03-24T08:16:41.562Z,7.30
2018-03-24T08:19:09.814Z,7.40
2018-03-24T08:21:38.090Z,7.50
2018-03-24T08:24:06.342Z,7.50
2018-03-24T08:26:35.354Z,7.60
2018-03-24T08:29:03.622Z,7.60
2018-03-24T08:31:31.869Z,7.70
2018-03-24T08:34:00.227Z,7.80
2018-03-24T08:36:29.714Z,7.90
2018-03-24T08:38:57.969Z,7.90
2018-03-24T08:41:26.211Z,8.00
2018-03-24T08:43:55.414Z,8.10
2018-03-24T08:46:24.426Z,8.40
2018-03-24T08:48:53.441Z,8.60
2018-03-24T08:51:21.711Z,8.60
2018-03-24T08:53:49.969Z,8.80
2018-03-24T08:56:19.301Z,8.90
2018-03-24T08:58:48.058Z,8.90
2018-03-24T09:01:16.307Z,9.00
2018-03-24T09:03:44.562Z,8.90
2018-03-24T09:06:12.822Z,9.00
2018-03-24T09:08:41.071Z,9.20
2018-03-24T09:11:10.089Z,9.30
2018-03-24T09:13:38.354Z,9.30
2018-03-24T09:16:06.599Z,9.30
2018-03-24T09:18:34.850Z,9.30
2018-03-24T09:21:03.624Z,9.40
2018-03-24T09:23:31.918Z,9.40
2018-03-24T09:26:00.174Z,9.50
2018-03-24T09:28:28.446Z,9.50
2018-03-24T09:30:56.695Z,9.50
2018-03-24T09:33:24.934Z,9.50
2018-03-24T09:35:53.222Z,9.50
2018-03-24T09:38:22.229Z,9.90
2018-03-24T09:40:51.251Z,10.00
2018-03-24T09:43:19.918Z,10.00
2018-03-24T09:45:48.166Z,10.20
2018-03-24T09:48:16.423Z,10.20
2018-03-24T09:50:44.702Z,10.30
2018-03-24T09:53:12.957Z,10.40
2018-03-24T09:55:41.210Z,10.40
2018-03-24T09:58:09.498Z,10.50
2018-03-24T10:00:37.751Z,10.50
2018-03-24T10:03:06.006Z,10.50
2018-03-24T10:05:35.123Z,10.80
2018-03-24T10:08:03.388Z,10.80
2018-03-24T10:10:32.427Z,10.80
2018-03-24T10:13:00.703Z,10.80
2018-03-24T10:15:28.962Z,10.80
2018-03-24T10:17:57.223Z,10.70
2018-03-24T10:20:34.941Z,10.90
2018-03-24T10:26:04.482Z,11.40
2018-03-24T10:28:32.734Z,11.90
2018-03-24T10:31:00.986Z,12.70
2018-03-24T10:33:29.432Z,13.60
2018-03-24T10:35:57.718Z,14.10
2018-03-24T10:38:26.119Z,14.90
2018-03-24T10:40:54.407Z,15.70
2018-03-24T10:43:29.035Z,16.10
2018-03-24T10:45:57.662Z,16.10
2018-03-24T10:48:25.998Z,16.70
2018-03-24T10:50:55.021Z,17.60
2018-03-24T10:53:23.295Z,17.50
2018-03-24T10:55:51.549Z,17.80
2018-03-24T10:58:20.492Z,17.90
2018-03-24T11:00:54.422Z,18.20
2018-03-24T11:03:22.650Z,18.30
2018-03-24T11:05:51.062Z,18.10
2018-03-24T11:08:19.646Z,18.90
2018-03-24T11:10:47.890Z,19.40
2018-03-24T11:13:16.138Z,19.10
2018-03-24T11:15:45.538Z,18.50
2018-03-24T11:18:14.555Z,16.70
2018-03-24T11:20:42.922Z,16.70
2018-03-24T11:23:11.954Z,16.40
2018-03-24T11:25:41.243Z,16.40
2018-03-24T11:28:09.477Z,17.50
2018-03-24T11:30:37.942Z,17.80
2018-03-24T11:33:06.220Z,18.10
2018-03-24T11:35:34.454Z,18.10
2018-03-24T11:38:02.730Z,18.20
2018-03-24T11:40:30.978Z,18.20
2018-03-24T11:42:59.230Z,18.40
2018-03-24T11:45:27.526Z,18.90
2018-03-24T11:47:55.778Z,18.90
2018-03-24T11:50:24.030Z,18.50
2018-03-24T11:52:52.502Z,18.70
2018-03-24T11:55:20.937Z,19.70
2018-03-24T11:57:50.424Z,21.00
2018-03-24T12:00:20.643Z,21.00
2018-03-24T12:02:49.262Z,20.20
2018-03-24T12:05:17.908Z,20.00
2018-03-24T12:07:48.865Z,19.80
2018-03-24T12:10:17.222Z,19.20
2018-03-24T12:12:45.506Z,19.10
2018-03-24T12:15:14.047Z,18.90
2018-03-24T12:17:42.315Z,18.50
2018-03-24T12:20:10.574Z,19.40
2018-03-24T12:22:38.850Z,20.40
2018-03-24T12:25:07.875Z,20.50
2018-03-24T12:27:36.142Z,20.50
2018-03-24T12:30:04.421Z,19.70
2018-03-24T12:32:32.709Z,19.30
2018-03-24T12:35:00.972Z,19.70
2018-03-24T12:37:30.281Z,20.50
2018-03-24T12:39:58.587Z,21.10
2018-03-24T12:42:26.839Z,21.10
2018-03-24T12:44:55.210Z,20.60
2018-03-24T12:47:24.071Z,20.80
2018-03-24T12:49:52.879Z,21.20
2018-03-24T12:52:21.717Z,21.40
2018-03-24T12:54:50.523Z,21.40
2018-03-24T12:57:18.854Z,21.20
2018-03-24T12:59:48.697Z,21.70
2018-03-24T13:02:17.498Z,21.50
2018-03-24T13:04:46.072Z,20.60
2018-03-24T13:07:16.444Z,20.10
2018-03-24T13:09:45.504Z,19.30
2018-03-24T13:12:14.693Z,19.20
2018-03-24T13:14:43.054Z,19.20
2018-03-24T13:17:11.672Z,19.20
2018-03-24T13:19:40.758Z,21.10
2018-03-24T13:22:09.220Z,21.10
2018-03-24T13:24:37.466Z,22.50
2018-03-24T13:27:05.985Z,23.40
2018-03-24T13:29:34.263Z,23.80
2018-03-24T13:32:02.518Z,24.10
2018-03-24T13:34:30.777Z,24.20
2018-03-24T13:37:01.321Z,24.50
2018-03-24T13:39:30.897Z,24.10
2018-03-24T13:41:59.550Z,23.00
2018-03-24T13:44:28.342Z,21.90
2018-03-24T13:46:58.779Z,21.00
2018-03-24T13:49:27.031Z,20.40
2018-03-24T13:51:55.404Z,19.90
2018-03-24T13:54:23.675Z,19.50
2018-03-24T13:56:51.978Z,19.40
2018-03-24T13:59:20.318Z,19.60
2018-03-24T14:01:48.598Z,19.70
2018-03-24T14:04:18.032Z,19.50
2018-03-24T14:06:46.806Z,19.40
2018-03-24T14:09:17.256Z,20.10
2018-03-24T14:11:45.517Z,20.50
2018-03-24T14:14:13.860Z,20.60
2018-03-24T14:16:43.308Z,20.50
2018-03-24T14:19:12.197Z,20.10
2018-03-24T14:21:40.940Z,19.90
2018-03-24T14:24:09.194Z,19.50
2018-03-24T14:26:39.783Z,19.00
2018-03-24T14:29:09.387Z,18.70
2018-03-24T14:31:38.802Z,18.30
2018-03-24T14:34:07.054Z,18.10
2018-03-24T14:36:35.341Z,18.20
2018-03-24T14:39:06.939Z,19.30
2018-03-24T14:41:35.390Z,20.80
2018-03-24T14:44:04.726Z,21.80
2018-03-24T14:46:33.075Z,22.50
2018-03-24T14:49:01.326Z,22.80
2018-03-24T14:51:29.912Z,23.10
2018-03-24T14:53:58.207Z,23.90
2018-03-24T14:56:26.636Z,24.80
2018-03-24T14:58:55.002Z,25.60
2018-03-24T15:01:24.030Z,26.60
2018-03-24T15:03:52.353Z,26.50
2018-03-24T15:06:20.869Z,25.60
2018-03-24T15:08:49.137Z,24.20
2018-03-24T15:11:17.479Z,22.90
2018-03-24T15:13:46.866Z,21.90
2018-03-24T15:16:15.158Z,22.50
2018-03-24T15:18:43.541Z,23.00
2018-03-24T15:21:11.949Z,23.00
2018-03-24T15:23:40.974Z,21.60
2018-03-24T15:26:09.362Z,21.60
2018-03-24T15:28:37.851Z,21.10
2018-03-24T15:31:29.151Z,21.90
2018-03-24T15:34:09.652Z,22.50
2018-03-24T15:36:42.945Z,23.40
2018-03-24T15:39:11.486Z,24.00
2018-03-24T15:41:39.812Z,24.70
2018-03-24T15:44:09.308Z,25.00
2018-03-24T15:46:37.630Z,25.00
2018-03-24T15:49:05.914Z,25.20
2018-03-24T15:51:34.251Z,25.50
2018-03-24T15:54:03.126Z,25.60
2018-03-24T15:56:32.544Z,25.90
2018-03-24T15:59:01.848Z,26.20
2018-03-24T16:01:30.602Z,26.30
2018-03-24T16:03:58.961Z,26.00
2018-03-24T16:06:28.210Z,25.60
2018-03-24T16:08:56.966Z,25.50
2018-03-24T16:11:26.387Z,25.10
2018-03-24T16:13:54.684Z,24.90
2018-03-24T16:16:24.264Z,24.30
2018-03-24T16:18:52.564Z,24.30
2018-03-24T16:21:24.279Z,23.90
2018-03-24T16:23:52.730Z,24.00
2018-03-24T16:26:22.935Z,23.10
2018-03-24T16:28:51.346Z,23.10
2018-03-24T16:31:21.011Z,23.20
2018-03-24T16:33:50.641Z,23.10
2018-03-24T16:36:19.874Z,23.20
2018-03-24T16:38:48.355Z,23.20
2018-03-24T16:41:18.739Z,23.20
2018-03-24T16:43:47.106Z,23.00
2018-03-24T16:46:15.530Z,22.70
2018-03-24T16:48:44.798Z,22.00
2018-03-24T16:51:13.460Z,22.00
2018-03-24T16:53:42.698Z,21.40
2018-03-24T16:56:12.722Z,20.70
2018-03-24T16:58:41.114Z,20.10
2018-03-24T17:01:09.835Z,19.60
2018-03-24T17:03:38.179Z,19.10
2018-03-24T17:06:06.514Z,18.60
2018-03-24T17:08:34.922Z,18.30
2018-03-24T17:11:03.959Z,17.80
2018-03-24T17:13:33.201Z,17.70
2018-03-24T17:16:03.424Z,17.50
2018-03-24T17:18:31.676Z,17.20
2018-03-24T17:21:01.119Z,16.90
2018-03-24T17:23:30.214Z,16.50
2018-03-24T17:25:59.705Z,16.50
2018-03-24T17:28:28.074Z,16.30
2018-03-24T17:30:56.481Z,16.20
2018-03-24T17:33:24.982Z,16.10
2018-03-24T17:35:54.462Z,15.90
2018-03-24T17:38:23.552Z,15.60
2018-03-24T17:40:51.806Z,15.60
2018-03-24T17:43:20.385Z,15.50
2018-03-24T17:45:48.973Z,15.40
2018-03-24T17:48:17.303Z,15.30
2018-03-24T17:50:47.482Z,15.10
2018-03-24T17:53:15.878Z,15.00
2018-03-24T17:55:44.913Z,14.70
2018-03-24T17:58:13.246Z,14.70
2018-03-24T18:00:46.440Z,14.50
2018-03-24T18:03:14.686Z,14.40
2018-03-24T18:05:43.286Z,14.40
2018-03-24T18:08:11.631Z,14.30
2018-03-24T18:10:39.902Z,14.20
2018-03-24T18:13:08.999Z,14.10
2018-03-24T18:15:39.286Z,14.00
2018-03-24T18:18:08.518Z,13.70
2018-03-24T18:20:36.770Z,13.60
2018-03-24T18:23:05.200Z,13.50
2018-03-24T18:25:33.749Z,13.40
2018-03-24T18:28:02.007Z,13.40
2018-03-24T18:30:30.870Z,13.30
2018-03-24T18:32:59.115Z,13.20
2018-03-24T18:35:27.514Z,13.10
2018-03-24T18:37:55.794Z,13.10
2018-03-24T18:40:24.094Z,13.00
2018-03-24T18:42:53.273Z,13.10
2018-03-24T18:45:22.013Z,13.00
2018-03-24T18:47:50.643Z,13.10
2018-03-24T18:50:18.902Z,13.10
2018-03-24T18:52:47.230Z,13.00
2018-03-24T18:55:15.493Z,12.80
2018-03-24T18:57:44.566Z,12.70
2018-03-24T19:00:13.790Z,12.50
2018-03-24T19:02:42.819Z,12.40
2018-03-24T19:05:11.075Z,12.40
2018-03-24T19:07:39.581Z,12.30
2018-03-24T19:10:08.399Z,11.90
2018-03-24T19:12:36.642Z,11.70
2018-03-24T19:15:05.461Z,11.50
2018-03-24T19:17:33.717Z,11.50
2018-03-24T19:20:01.981Z,11.40
2018-03-24T19:22:30.262Z,11.40
2018-03-24T19:24:58.776Z,11.30
2018-03-24T19:27:27.170Z,11.20
2018-03-24T19:29:55.739Z,11.10
2018-03-24T19:32:23.982Z,11.00
2018-03-24T19:34:52.239Z,11.00
2018-03-24T19:37:21.067Z,10.90
2018-03-24T19:39:49.342Z,10.80
2018-03-24T19:42:17.603Z,10.80
2018-03-24T19:44:45.947Z,10.80
2018-03-24T19:47:14.298Z,10.70
2018-03-24T19:49:42.580Z,10.70
2018-03-24T19:52:10.857Z,10.60
2018-03-24T19:54:39.155Z,10.50
2018-03-24T19:57:07.410Z,10.60
2018-03-24T19:59:36.170Z,10.50
2018-03-24T20:02:04.547Z,10.40
2018-03-24T20:04:32.863Z,10.40
2018-03-24T20:07:01.126Z,10.30
2018-03-24T20:09:30.045Z,10.30
2018-03-24T20:11:58.302Z,10.40
2018-03-24T20:14:26.722Z,10.30
2018-03-24T20:16:56.056Z,10.30
2018-03-24T20:19:24.358Z,10.30
2018-03-24T20:21:52.825Z,10.20
2018-03-24T20:24:21.179Z,10.20
2018-03-24T20:26:49.499Z,10.20
2018-03-24T20:29:17.770Z,10.10
2018-03-24T20:31:46.031Z,10.10
2018-03-24T20:34:14.281Z,10.10
2018-03-24T20:36:42.742Z,10.00
2018-03-24T20:39:11.083Z,9.90
2018-03-24T20:41:39.459Z,9.70
2018-03-24T20:44:08.241Z,9.60
2018-03-24T20:46:37.619Z,9.40
2018-03-24T20:49:06.431Z,9.30
2018-03-24T20:51:34.698Z,9.20
2018-03-24T20:54:03.009Z,9.20
2018-03-24T20:56:31.307Z,9.20
2018-03-24T20:59:00.346Z,9.10
2018-03-24T21:01:28.619Z,9.10
2018-03-24T21:03:56.844Z,9.10
2018-03-24T21:06:25.490Z,9.10
2018-03-24T21:08:53.814Z,9.00
2018-03-24T21:11:23.359Z,8.90
2018-03-24T21:13:51.629Z,8.90
2018-03-24T21:16:19.886Z,8.90
2018-03-24T21:18:48.898Z,8.80
2018-03-24T21:21:17.244Z,8.80
2018-03-24T21:23:46.259Z,8.60
2018-03-24T21:26:14.513Z,8.60
2018-03-24T21:28:43.047Z,8.60
2018-03-24T21:31:11.347Z,8.50
2018-03-24T21:33:39.608Z,8.50
2018-03-24T21:36:07.930Z,8.50
2018-03-24T21:38:36.951Z,8.30
2018-03-24T21:41:05.198Z,8.30
2018-03-24T21:43:34.238Z,8.20
2018-03-24T21:46:03.466Z,8.20
2018-03-24T21:48:31.716Z,8.20
2018-03-24T21:51:00.314Z,8.10
2018-03-24T21:53:28.557Z,8.00
2018-03-24T21:55:56.806Z,7.90
2018-03-24T21:58:25.434Z,7.80
2018-03-24T22:00:53.849Z,7.80
2018-03-24T22:03:22.045Z,7.80
2018-03-24T22:05:50.321Z,7.80
2018-03-24T22:08:18.624Z,7.70
2018-03-24T22:10:46.818Z,7.70
2018-03-24T22:13:15.710Z,7.60
2018-03-24T22:15:43.962Z,7.60
2018-03-24T22:18:12.206Z,7.70
2018-03-24T22:20:41.254Z,7.80
2018-03-24T22:23:09.499Z,7.80
2018-03-24T22:25:38.514Z,7.70
2018-03-24T22:28:06.787Z,7.70
2018-03-24T22:30:35.032Z,7.70
2018-03-24T22:33:03.282Z,7.60
2018-03-24T22:35:32.042Z,7.50
2018-03-24T22:38:00.286Z,7.40
2018-03-24T22:40:28.538Z,7.40
2018-03-24T22:42:56.814Z,7.40
2018-03-24T22:45:25.071Z,7.40
2018-03-24T22:47:53.307Z,7.40
2018-03-24T22:50:21.586Z,7.40
2018-03-24T22:52:49.834Z,7.30
2018-03-24T22:55:18.082Z,7.20
2018-03-24T22:57:46.846Z,7.20
2018-03-24T23:00:15.098Z,7.20
2018-03-24T23:02:43.526Z,7.20
2018-03-24T23:05:11.797Z,7.10
2018-03-24T23:07:40.060Z,7.10
2018-03-24T23:10:08.306Z,7.00
2018-03-24T23:12:37.411Z,7.00
2018-03-24T23:15:05.828Z,7.00
2018-03-24T23:17:34.142Z,6.90
2018-03-24T23:20:03.251Z,6.90
2018-03-24T23:22:31.514Z,6.80
2018-03-24T23:25:00.546Z,6.80
2018-03-24T23:27:28.817Z,6.80
2018-03-24T23:29:57.062Z,6.70
2018-03-24T23:32:25.311Z,6.60
2018-03-24T23:34:53.589Z,6.50
2018-03-24T23:37:21.832Z,6.50
2018-03-24T23:39:50.073Z,6.50
2018-03-24T23:42:18.590Z,6.50
2018-03-24T23:44:46.959Z,6.50
2018-03-24T23:47:15.186Z,6.40
2018-03-24T23:49:43.744Z,6.20
2018-03-24T23:52:11.985Z,6.10
2018-03-24T23:54:40.221Z,5.90
2018-03-24T23:57:08.497Z,5.80
2018-03-24T23:59:36.750Z,5.70
